createdAt,value
2023-01-01T00:01:22.177Z,37.42
2023-01-01T00:03:57.626Z,33.45
2023-01-01T00:06:25.793Z,34.30
2023-01-01T00:09:13.580Z,29.75
2023-01-01T00:11:41.514Z,28.88
2023-01-01T00:14:12.437Z,28.80
2023-01-01T00:16:41.344Z,33.88
2023-01-01T00:19:09.221Z,28.48
2023-01-01T00:21:37.241Z,34.55
2023-01-01T00:24:05.573Z,33.58
2023-01-01T00:26:35.524Z,30.88
2023-01-01T00:29:06.405Z,25.85
2023-01-01T00:31:34.455Z,30.85
2023-01-01T00:34:02.451Z,27.77
2023-01-01T00:36:30.371Z,33.60
2023-01-01T00:38:58.565Z,28.15
2023-01-01T00:41:26.453Z,31.40
2023-01-01T00:43:54.295Z,30.52
2023-01-01T00:46:22.325Z,31.75
2023-01-01T00:48:51.214Z,28.80
2023-01-01T00:51:19.073Z,26.83
2023-01-01T00:53:46.891Z,31.45
2023-01-01T00:56:14.847Z,33.78
2023-01-01T00:58:42.967Z,29.15
2023-01-01T01:01:11.023Z,29.15
2023-01-01T01:03:39.815Z,26.15
2023-01-01T01:06:10.233Z,25.05
2023-01-01T01:08:39.413Z,25.63
2023-01-01T01:11:08.966Z,30.60
2023-01-01T01:13:37.661Z,29.50
2023-01-01T01:16:16.283Z,29.13
2023-01-01T01:18:44.657Z,27.42
2023-01-01T01:21:15.870Z,29.05
2023-01-01T01:23:43.945Z,29.52
2023-01-01T01:26:18.265Z,26.58
2023-01-01T01:28:49.860Z,32.97
2023-01-01T01:31:19.804Z,31.48
2023-01-01T01:33:48.803Z,30.85
2023-01-01T01:36:16.889Z,30.98
2023-01-01T01:38:45.090Z,30.83
2023-01-01T01:41:26.938Z,32.50
2023-01-01T01:43:59.558Z,32.58
2023-01-01T01:46:35.525Z,36.95
2023-01-01T01:49:24.945Z,37.25
2023-01-01T01:51:53.388Z,36.67
2023-01-01T01:54:22.817Z,33.13
2023-01-01T01:56:54.321Z,31.80
2023-01-01T01:59:22.220Z,35.53
2023-01-01T02:01:50.033Z,37.08
2023-01-01T02:04:18.236Z,36.70
2023-01-01T02:06:46.135Z,31.75
2023-01-01T02:09:14.693Z,33.70
2023-01-01T02:11:48.510Z,31.58
2023-01-01T02:14:16.436Z,33.92
2023-01-01T02:17:06.718Z,39.67
2023-01-01T02:19:59.255Z,33.25
2023-01-01T02:22:38.541Z,31.42
2023-01-01T02:25:30.654Z,39.75
2023-01-01T02:27:58.316Z,33.75
2023-01-01T02:30:26.685Z,34.60
2023-01-01T02:33:03.227Z,36.03
2023-01-01T02:35:37.048Z,46.95
2023-01-01T02:38:25.141Z,42.53
2023-01-01T02:41:30.337Z,37.53
2023-01-01T02:46:24.903Z,42.67
2023-01-01T02:48:53.802Z,39.75
2023-01-01T02:51:36.529Z,42.25
2023-01-01T02:54:51.884Z,39.65
2023-01-01T02:57:40.579Z,54.70
2023-01-01T03:00:28.490Z,45.42
2023-01-01T03:03:09.836Z,45.58
2023-01-01T03:06:14.689Z,48.38
2023-01-01T03:08:45.530Z,47.45
2023-01-01T03:11:15.058Z,49.72
2023-01-01T03:14:02.613Z,49.38
2023-01-01T03:16:30.638Z,49.28
2023-01-01T03:19:11.886Z,52.20
2023-01-01T03:21:55.277Z,51.05
2023-01-01T03:25:08.277Z,53.30
2023-01-01T03:27:49.707Z,51.50
2023-01-01T03:30:19.923Z,51.83
2023-01-01T03:33:00.882Z,51.15
2023-01-01T03:35:35.657Z,54.97
2023-01-01T03:38:05.137Z,55.80
2023-01-01T03:40:34.328Z,55.70
2023-01-01T03:43:12.090Z,57.45
2023-01-01T03:45:45.000Z,54.50
2023-01-01T03:48:13.078Z,52.50
2023-01-01T03:51:18.159Z,55.55
2023-01-01T03:53:46.102Z,53.75
2023-01-01T03:56:20.338Z,55.25
2023-01-01T03:59:20.266Z,58.80
2023-01-01T04:01:53.452Z,56.65
2023-01-01T04:04:21.601Z,55.55
2023-01-01T04:06:51.039Z,57.20
2023-01-01T04:09:21.810Z,56.42
2023-01-01T04:12:04.865Z,54.10
2023-01-01T04:14:41.148Z,56.63
2023-01-01T04:19:37.708Z,58.97
2023-01-01T04:22:05.841Z,53.95
2023-01-01T04:24:33.837Z,55.55
2023-01-01T04:27:01.966Z,56.38
2023-01-01T04:29:30.292Z,57.42
2023-01-01T04:31:58.811Z,55.60
2023-01-01T04:34:26.748Z,54.10
2023-01-01T04:36:54.474Z,55.72
2023-01-01T04:39:22.668Z,55.60
2023-01-01T04:41:52.050Z,51.83
2023-01-01T04:44:19.956Z,54.53
2023-01-01T04:46:48.137Z,58.40
2023-01-01T04:49:16.189Z,59.55
2023-01-01T04:51:44.076Z,55.95
2023-01-01T04:54:12.200Z,60.60
2023-01-01T04:56:40.527Z,61.17
2023-01-01T04:59:08.411Z,53.33
2023-01-01T05:01:36.361Z,52.72
2023-01-01T05:04:04.764Z,52.58
2023-01-01T05:06:32.677Z,49.08
2023-01-01T05:09:04.198Z,49.05
2023-01-01T05:11:32.529Z,50.60
2023-01-01T05:14:00.822Z,56.13
2023-01-01T05:16:30.936Z,55.10
2023-01-01T05:18:59.572Z,55.28
2023-01-01T05:21:32.190Z,52.65
2023-01-01T05:24:02.262Z,51.88
2023-01-01T05:26:33.370Z,56.33
2023-01-01T05:29:01.999Z,52.00
2023-01-01T05:31:31.918Z,49.40
2023-01-01T05:36:29.518Z,49.70
2023-01-01T05:38:57.495Z,48.88
2023-01-01T05:41:27.652Z,56.78
2023-01-01T05:43:55.528Z,49.50
2023-01-01T05:46:24.449Z,49.78
2023-01-01T05:48:53.298Z,50.97
2023-01-01T05:51:22.868Z,43.05
2023-01-01T05:53:51.672Z,45.72
2023-01-01T05:56:19.481Z,49.63
2023-01-01T05:58:48.438Z,46.28
2023-01-01T06:01:20.738Z,42.60
2023-01-01T06:03:49.152Z,47.22
2023-01-01T06:06:22.209Z,44.50
2023-01-01T06:08:54.881Z,44.08
2023-01-01T06:11:24.098Z,47.30
2023-01-01T06:13:53.489Z,45.53
2023-01-01T06:16:22.696Z,41.85
2023-01-01T06:18:50.536Z,45.40
2023-01-01T06:21:20.003Z,39.60
2023-01-01T06:23:51.924Z,38.25
2023-01-01T06:26:25.279Z,38.67
2023-01-01T06:28:53.493Z,36.55
2023-01-01T06:31:21.856Z,43.55
2023-01-01T06:33:50.951Z,43.42
2023-01-01T06:36:23.030Z,39.60
2023-01-01T06:38:55.624Z,37.00
2023-01-01T06:41:24.625Z,41.40
2023-01-01T06:43:52.520Z,38.75
2023-01-01T06:46:24.328Z,40.63
2023-01-01T06:48:59.123Z,41.53
2023-01-01T06:54:01.370Z,40.33
2023-01-01T06:56:29.395Z,39.97
2023-01-01T06:58:57.528Z,43.05
2023-01-01T07:01:26.991Z,39.85
2023-01-01T07:03:59.537Z,40.83
2023-01-01T07:06:28.274Z,36.92
2023-01-01T07:08:56.099Z,41.22
2023-01-01T07:11:25.480Z,36.60
2023-01-01T07:13:57.626Z,37.88
2023-01-01T07:16:25.963Z,44.30
2023-01-01T07:18:53.913Z,39.33
2023-01-01T07:21:34.064Z,41.75
2023-01-01T07:24:08.254Z,40.25
2023-01-01T07:26:36.106Z,41.45
2023-01-01T07:29:08.017Z,41.63
2023-01-01T07:31:38.075Z,39.38
2023-01-01T07:34:06.787Z,40.75
2023-01-01T07:36:35.539Z,39.08
2023-01-01T07:39:04.629Z,39.80
2023-01-01T07:41:33.812Z,37.97
2023-01-01T07:44:01.801Z,38.38
2023-01-01T07:46:30.339Z,36.03
2023-01-01T07:48:59.186Z,35.67
2023-01-01T07:51:28.318Z,38.90
2023-01-01T07:54:00.673Z,35.05
2023-01-01T07:59:03.392Z,37.10
2023-01-01T08:01:31.922Z,33.72
2023-01-01T08:04:11.157Z,34.13
2023-01-01T08:06:47.581Z,36.80
2023-01-01T08:09:15.954Z,33.92
2023-01-01T08:11:45.925Z,32.65
2023-01-01T08:14:18.773Z,32.00
2023-01-01T08:16:46.709Z,31.27
2023-01-01T08:19:14.547Z,27.88
2023-01-01T08:21:43.939Z,32.30
2023-01-01T08:24:11.969Z,33.47
2023-01-01T08:26:40.046Z,32.25
2023-01-01T08:29:08.131Z,31.63
2023-01-01T08:31:56.840Z,33.25
2023-01-01T08:34:24.628Z,26.40
2023-01-01T08:36:52.563Z,26.75
2023-01-01T08:39:20.199Z,28.60
2023-01-01T08:41:51.711Z,26.85
2023-01-01T08:44:20.053Z,26.45
2023-01-01T08:47:19.176Z,27.17
2023-01-01T08:49:49.128Z,30.38
2023-01-01T08:52:17.466Z,25.13
2023-01-01T08:54:45.318Z,30.15
2023-01-01T08:57:15.746Z,29.50
2023-01-01T08:59:43.831Z,27.13
2023-01-01T09:02:14.830Z,30.70
2023-01-01T09:04:44.839Z,25.48
2023-01-01T09:07:12.810Z,23.08
2023-01-01T09:09:40.662Z,26.67
2023-01-01T09:12:10.967Z,24.55
2023-01-01T09:14:40.304Z,26.92
2023-01-01T09:17:08.132Z,22.85
2023-01-01T09:19:36.012Z,24.98
2023-01-01T09:22:11.029Z,24.05
2023-01-01T09:24:39.003Z,25.17
2023-01-01T09:27:06.990Z,28.10
2023-01-01T09:29:35.826Z,23.80
2023-01-01T09:32:04.434Z,23.65
2023-01-01T09:34:32.472Z,22.08
2023-01-01T09:37:01.679Z,24.23
2023-01-01T09:39:30.484Z,25.25
2023-01-01T09:42:19.975Z,28.67
2023-01-01T09:45:05.881Z,25.55
2023-01-01T09:47:39.250Z,29.00
2023-01-01T09:50:15.571Z,24.73
2023-01-01T09:52:52.778Z,23.33
2023-01-01T09:55:44.142Z,24.20
2023-01-01T09:58:13.850Z,24.63
2023-01-01T10:00:46.403Z,24.05
2023-01-01T10:03:29.543Z,23.33
2023-01-01T10:06:00.133Z,24.73
2023-01-01T10:09:20.820Z,27.83
2023-01-01T10:12:07.121Z,25.90
2023-01-01T10:15:27.312Z,27.25
2023-01-01T10:17:57.932Z,28.73
2023-01-01T10:20:51.413Z,25.52
2023-01-01T10:23:23.023Z,26.45
2023-01-01T10:25:52.152Z,28.67
2023-01-01T10:28:28.654Z,30.10
2023-01-01T10:31:15.394Z,29.20
2023-01-01T10:33:43.547Z,26.15
2023-01-01T10:36:15.039Z,29.20
2023-01-01T10:38:43.224Z,28.65
2023-01-01T10:41:19.017Z,35.78
2023-01-01T10:43:47.546Z,29.05
2023-01-01T10:46:20.045Z,28.50
2023-01-01T10:49:07.292Z,27.00
2023-01-01T10:51:35.887Z,29.63
2023-01-01T10:54:06.059Z,25.90
2023-01-01T10:56:40.793Z,27.05
2023-01-01T10:59:38.493Z,28.70
2023-01-01T11:02:26.169Z,26.77
2023-01-01T11:05:22.028Z,31.55
2023-01-01T11:07:52.386Z,28.50
2023-01-01T11:10:29.473Z,28.70
2023-01-01T11:13:06.154Z,26.38
2023-01-01T11:15:42.407Z,30.75
2023-01-01T11:18:38.263Z,30.63
2023-01-01T11:21:06.525Z,30.30
2023-01-01T11:23:39.037Z,27.75
2023-01-01T11:26:12.718Z,29.55
2023-01-01T11:28:43.304Z,26.35
2023-01-01T11:31:14.760Z,28.38
2023-01-01T11:33:53.689Z,27.52
2023-01-01T11:36:27.641Z,26.90
2023-01-01T11:39:21.765Z,26.33
2023-01-01T11:41:52.680Z,27.67
2023-01-01T11:44:55.303Z,29.52
2023-01-01T11:47:31.510Z,25.23
2023-01-01T11:50:09.303Z,25.88
2023-01-01T11:52:42.124Z,27.02
2023-01-01T11:55:16.206Z,27.98
2023-01-01T11:58:19.914Z,30.38
2023-01-01T12:00:58.074Z,34.65
2023-01-01T12:03:33.504Z,35.17
2023-01-01T12:06:25.577Z,31.73
2023-01-01T12:09:35.473Z,31.08
2023-01-01T12:12:23.643Z,27.80
2023-01-01T12:15:25.688Z,27.42
2023-01-01T12:18:08.277Z,31.23
2023-01-01T12:20:40.714Z,36.92
2023-01-01T12:23:09.472Z,28.73
2023-01-01T12:26:03.167Z,29.25
2023-01-01T12:28:43.401Z,28.88
2023-01-01T12:31:41.130Z,36.03
2023-01-01T12:37:07.050Z,40.75
2023-01-01T12:40:27.813Z,36.85
2023-01-01T12:43:09.359Z,34.00
2023-01-01T12:46:12.166Z,31.80
2023-01-01T12:48:52.084Z,34.30
2023-01-01T12:51:31.499Z,31.45
2023-01-01T12:53:59.300Z,33.72
2023-01-01T12:56:50.485Z,31.35
2023-01-01T12:59:25.196Z,33.40
2023-01-01T13:01:57.800Z,35.15
2023-01-01T13:04:25.743Z,31.00
2023-01-01T13:07:06.019Z,32.88
2023-01-01T13:09:38.174Z,30.65
2023-01-01T13:12:12.399Z,33.97
2023-01-01T13:17:56.959Z,33.50
2023-01-01T13:20:26.826Z,31.45
2023-01-01T13:22:54.900Z,34.20
2023-01-01T13:25:24.562Z,30.63
2023-01-01T13:28:05.449Z,30.92
2023-01-01T13:30:39.733Z,31.65
2023-01-01T13:33:47.977Z,33.35
2023-01-01T13:36:23.041Z,35.65
2023-01-01T13:38:52.106Z,31.00
2023-01-01T13:41:52.795Z,33.97
2023-01-01T13:44:22.999Z,33.72
2023-01-01T13:46:59.121Z,37.15
2023-01-01T13:50:01.062Z,33.50
2023-01-01T13:52:58.586Z,38.70
2023-01-01T13:56:01.270Z,40.47
2023-01-01T13:58:45.076Z,34.30
2023-01-01T14:01:13.184Z,34.53
2023-01-01T14:03:47.440Z,31.90
2023-01-01T14:06:37.746Z,35.20
2023-01-01T14:09:27.103Z,31.48
2023-01-01T14:11:56.555Z,31.23
2023-01-01T14:14:29.493Z,31.08
2023-01-01T14:17:03.640Z,35.35
2023-01-01T14:19:32.024Z,32.17
2023-01-01T14:22:00.160Z,38.08
2023-01-01T14:24:28.256Z,37.05
2023-01-01T14:26:56.238Z,38.05
2023-01-01T14:29:30.438Z,35.42
2023-01-01T14:31:59.123Z,39.17
2023-01-01T14:34:28.698Z,32.15
2023-01-01T14:37:01.295Z,33.47
2023-01-01T14:39:33.462Z,37.85
2023-01-01T14:42:05.380Z,36.08
2023-01-01T14:44:40.358Z,34.72
2023-01-01T14:47:33.034Z,35.78
2023-01-01T14:50:26.772Z,38.25
2023-01-01T14:53:14.592Z,40.10
2023-01-01T14:55:45.356Z,33.55
2023-01-01T14:58:34.087Z,35.88
2023-01-01T15:01:16.999Z,38.35
2023-01-01T15:03:59.011Z,37.67
2023-01-01T15:06:27.099Z,35.75
2023-01-01T15:08:55.783Z,33.58
2023-01-01T15:11:28.814Z,34.15
2023-01-01T15:14:00.531Z,35.30
2023-01-01T15:16:36.142Z,36.50
2023-01-01T15:19:19.618Z,37.47
2023-01-01T15:21:47.704Z,40.25
2023-01-01T15:24:20.600Z,37.22
2023-01-01T15:26:52.922Z,36.10
2023-01-01T15:29:34.282Z,34.42
2023-01-01T15:32:08.951Z,35.80
2023-01-01T15:34:50.251Z,31.10
2023-01-01T15:37:25.343Z,32.67
2023-01-01T15:40:21.260Z,40.88
2023-01-01T15:42:58.922Z,35.70
2023-01-01T15:45:26.695Z,33.15
2023-01-01T15:48:08.044Z,32.88
2023-01-01T15:50:49.817Z,35.92
2023-01-01T15:53:27.641Z,35.08
2023-01-01T15:55:59.942Z,35.38
2023-01-01T15:58:39.787Z,35.80
2023-01-01T16:01:13.491Z,31.88
2023-01-01T16:03:42.061Z,27.98
2023-01-01T16:06:16.303Z,27.52
2023-01-01T16:08:48.349Z,29.80
2023-01-01T16:11:16.768Z,31.25
2023-01-01T16:14:08.278Z,30.92
2023-01-01T16:16:38.279Z,28.85
2023-01-01T16:19:13.848Z,30.63
2023-01-01T16:21:41.709Z,26.98
2023-01-01T16:24:18.872Z,33.63
2023-01-01T16:26:47.549Z,30.00
2023-01-01T16:29:18.372Z,30.75
2023-01-01T16:31:47.578Z,28.38
2023-01-01T16:34:15.650Z,30.58
2023-01-01T16:36:44.090Z,32.85
2023-01-01T16:39:12.464Z,33.08
2023-01-01T16:41:42.105Z,32.75
2023-01-01T16:44:12.863Z,32.97
2023-01-01T16:46:40.727Z,35.78
2023-01-01T16:49:09.081Z,32.35
2023-01-01T16:51:40.636Z,32.03
2023-01-01T16:54:14.340Z,31.23
2023-01-01T16:56:42.594Z,28.92
2023-01-01T16:59:10.337Z,29.55
2023-01-01T17:01:44.978Z,31.50
2023-01-01T17:04:13.283Z,39.65
2023-01-01T17:06:41.029Z,31.85
2023-01-01T17:09:09.022Z,34.05
2023-01-01T17:11:36.879Z,27.27
2023-01-01T17:14:06.425Z,32.15
2023-01-01T17:16:39.039Z,25.55
2023-01-01T17:19:16.193Z,26.40
2023-01-01T17:21:46.847Z,26.10
2023-01-01T17:24:36.439Z,31.25
2023-01-01T17:27:07.049Z,26.45
2023-01-01T17:29:35.031Z,25.63
2023-01-01T17:32:03.292Z,27.10
2023-01-01T17:34:31.402Z,27.67
2023-01-01T17:36:59.205Z,34.92
2023-01-01T17:39:27.128Z,30.40
2023-01-01T17:41:54.899Z,33.38
2023-01-01T17:44:23.149Z,33.05
2023-01-01T17:46:52.941Z,31.90
2023-01-01T17:49:23.502Z,32.25
2023-01-01T17:51:51.877Z,30.05
2023-01-01T17:54:19.594Z,37.33
2023-01-01T17:56:47.788Z,27.77
2023-01-01T17:59:16.538Z,29.13
2023-01-01T18:01:44.493Z,29.75
2023-01-01T18:04:12.210Z,26.45
2023-01-01T18:06:43.177Z,27.98
2023-01-01T18:09:13.098Z,28.20
2023-01-01T18:11:41.365Z,36.20
2023-01-01T18:14:09.569Z,32.85
2023-01-01T18:16:38.595Z,33.50
2023-01-01T18:19:08.136Z,27.33
2023-01-01T18:21:36.593Z,31.58
2023-01-01T18:24:07.100Z,32.45
2023-01-01T18:26:35.916Z,27.33
2023-01-01T18:29:04.554Z,32.60
2023-01-01T18:31:33.053Z,28.67
2023-01-01T18:34:04.834Z,30.63
2023-01-01T18:36:33.699Z,28.17
2023-01-01T18:39:09.853Z,28.80
2023-01-01T18:41:49.722Z,29.85
2023-01-01T18:44:25.771Z,30.05
2023-01-01T18:47:08.116Z,30.45
2023-01-01T18:49:38.620Z,27.70
2023-01-01T18:52:28.611Z,28.58
2023-01-01T18:55:31.179Z,29.80
2023-01-01T18:58:02.063Z,29.92
2023-01-01T19:00:31.870Z,31.40
2023-01-01T19:03:02.902Z,27.10
2023-01-01T19:05:35.198Z,27.73
2023-01-01T19:08:24.881Z,27.90
2023-01-01T19:10:58.618Z,24.77
2023-01-01T19:13:37.840Z,27.48
2023-01-01T19:16:15.865Z,35.42
2023-01-01T19:18:48.509Z,24.70
2023-01-01T19:21:23.505Z,26.80
2023-01-01T19:23:58.175Z,26.42
2023-01-01T19:26:35.342Z,27.40
2023-01-01T19:29:23.169Z,26.83
2023-01-01T19:31:52.829Z,29.75
2023-01-01T19:34:21.030Z,27.08
2023-01-01T19:36:48.852Z,29.30
2023-01-01T19:39:19.593Z,34.92
2023-01-01T19:42:08.677Z,31.20
2023-01-01T19:44:39.128Z,29.92
2023-01-01T19:47:09.233Z,26.58
2023-01-01T19:49:43.010Z,25.85
2023-01-01T19:52:15.372Z,28.30
2023-01-01T19:54:44.249Z,27.25
2023-01-01T19:57:14.178Z,32.03
2023-01-01T19:59:42.467Z,29.13
2023-01-01T20:02:44.136Z,32.08
2023-01-01T20:05:01.619Z,27.73
2023-01-01T20:07:29.609Z,27.85
2023-01-01T20:09:57.541Z,32.72
2023-01-01T20:12:25.688Z,32.67
2023-01-01T20:14:53.947Z,26.70
2023-01-01T20:17:21.940Z,30.95
2023-01-01T20:19:49.866Z,30.33
2023-01-01T20:22:17.914Z,31.17
2023-01-01T20:24:46.163Z,28.92
2023-01-01T20:27:14.715Z,33.58
2023-01-01T20:29:42.802Z,33.35
2023-01-01T20:32:13.013Z,29.02
2023-01-01T20:34:42.117Z,35.22
2023-01-01T20:37:30.109Z,31.73
2023-01-01T20:39:57.836Z,27.48
2023-01-01T20:42:28.167Z,30.95
2023-01-01T20:44:56.231Z,28.65
2023-01-01T20:47:26.371Z,30.58
2023-01-01T20:49:54.523Z,34.08
2023-01-01T20:52:22.273Z,39.58
2023-01-01T20:54:49.947Z,31.33
2023-01-01T20:57:18.937Z,34.40
2023-01-01T20:59:46.740Z,31.75
2023-01-01T21:02:14.917Z,31.23
2023-01-01T21:04:45.126Z,29.67
2023-01-01T21:07:12.942Z,38.40
2023-01-01T21:09:41.233Z,32.92
2023-01-01T21:12:10.036Z,33.10
2023-01-01T21:14:37.936Z,31.27
2023-01-01T21:17:35.126Z,33.45
2023-01-01T21:20:02.843Z,30.85
2023-01-01T21:22:31.120Z,32.90
2023-01-01T21:25:24.144Z,31.60
2023-01-01T21:27:47.584Z,35.83
2023-01-01T21:30:15.423Z,33.28
2023-01-01T21:32:44.816Z,35.60
2023-01-01T21:35:32.238Z,33.08
2023-01-01T21:38:00.823Z,36.25
2023-01-01T21:40:33.700Z,30.15
2023-01-01T21:43:16.699Z,29.27
2023-01-01T21:45:45.865Z,35.08
2023-01-01T21:48:22.855Z,31.83
2023-01-01T21:50:54.006Z,31.85
2023-01-01T21:53:30.053Z,33.50
2023-01-01T21:55:58.165Z,28.80
2023-01-01T21:58:46.095Z,31.10
2023-01-01T22:01:45.939Z,27.77
2023-01-01T22:04:18.920Z,32.33
2023-01-01T22:06:59.364Z,28.58
2023-01-01T22:09:33.014Z,28.80
2023-01-01T22:12:17.956Z,28.40
2023-01-01T22:14:52.706Z,28.73
2023-01-01T22:17:23.561Z,29.42
2023-01-01T22:19:51.903Z,31.70
2023-01-01T22:22:26.972Z,32.70
2023-01-01T22:24:56.720Z,32.70
2023-01-01T22:27:52.121Z,39.85
2023-01-01T22:30:26.761Z,38.50
2023-01-01T22:32:59.574Z,34.22
2023-01-01T22:35:32.083Z,35.90
2023-01-01T22:38:03.453Z,32.25
2023-01-01T22:40:36.631Z,30.98
2023-01-01T22:43:11.311Z,34.50
2023-01-01T22:45:49.296Z,28.05
2023-01-01T22:48:37.738Z,29.02
2023-01-01T22:51:14.504Z,33.22
2023-01-01T22:53:45.608Z,41.75
2023-01-01T22:56:13.617Z,37.97
2023-01-01T22:58:41.700Z,42.30
2023-01-01T23:01:09.621Z,39.65
2023-01-01T23:03:38.806Z,39.00
2023-01-01T23:06:07.654Z,40.22
2023-01-01T23:08:35.898Z,39.90
2023-01-01T23:11:05.380Z,37.83
2023-01-01T23:13:53.827Z,40.80
2023-01-01T23:16:33.189Z,35.80
2023-01-01T23:19:02.184Z,33.05
2023-01-01T23:21:30.216Z,35.92
2023-01-01T23:23:59.370Z,39.83
2023-01-01T23:26:28.370Z,41.55
2023-01-01T23:28:56.867Z,37.80
2023-01-01T23:31:26.097Z,35.60
2023-01-01T23:33:56.341Z,41.10
2023-01-01T23:36:27.435Z,42.60
2023-01-01T23:38:56.106Z,40.60
2023-01-01T23:41:25.870Z,36.28
2023-01-01T23:43:54.112Z,35.03
2023-01-01T23:46:26.625Z,36.53
2023-01-01T23:48:59.740Z,36.47
2023-01-01T23:51:29.313Z,32.17
2023-01-01T23:54:00.868Z,34.25
2023-01-01T23:56:30.222Z,36.72
2023-01-01T23:58:58.871Z,38.72
